PAKN Airport Information

Runway Information
Runway 12 Length 8901 ft width 150 ft
Elevation 60 ft Threshold 0 ft Heading 132
Runway 30 Length 8901 ft Width 150 ft
Elevation 73 ft Threshold 0 ft Heading 312
Runway 18 Length 4018 ft width 100 ft
Elevation 50 ft Threshold 0 ft Heading 196
Runway 36 Length 4018 ft Width 100 ft
Elevation 44 ft Threshold 0 ft Heading 16
Runway NW Length 4000 ft width 500 ft
Elevation 0 ft Threshold 0 ft Heading 0
Runway SE Length 4000 ft Width 500 ft
Elevation 0 ft Threshold 0 ft Heading 0
Airport Frequencies
Type A/G Name HARMONY Frequency 140.1 MHZ
Type ATIS Name ATIS Frequency 128.8 MHZ
Type CNTR Name ANCHORAGE Frequency 124.8 MHZ
Type CTAF Name CTAF Frequency 121.9 MHZ
Type FSS Name RDO Frequency 122.2 MHZ
Type GND Name GND Frequency 121.9 MHZ
Type OPS Name OPS Frequency 37.22 MHZ
Type PTD Name PTD Frequency 37.22 MHZ
Type TWR Name TWR Frequency 118.3 MHZ
Airport Navaids
Type NDB Name Saldo Frequency 355 KHZ
Type VORTAC Name King Salmon Frequency 112800 KHZ
Airport Weather Information & NOTAM
ADDS - METARS form results

(0431 UTC 15 November 2018)
Data provider http://aviationweather.gov/metar/data/
 
METAR text: PAKN 150422Z 36005KT 10SM BKN003 M02/M02 A2987 RMK AO2 T10171022
Conditions at: PAKN (KING SALMON , AK, US) observed 0422 UTC 15 November 2018
Temperature: -1.7°C (29°F)
Dewpoint: -2.2°C (28°F) [RH = 96%]
Pressure (altimeter): 29.87 inches Hg (1011.6 mb)
Winds: from the N (360 degrees) at 6 MPH (5 knots; 2.6 m/s)
Visibility: 10 or more miles (16+ km)
Ceiling: 300 feet AGL
Clouds: broken clouds at 300 feet AGL
Weather: no significant weather observed at this time

METAR text: PAKN 150414Z 36006KT 2SM R12/5000VP6000FT BR OVC003 M01/M02 A2987 RMK AO2 T10111017
Conditions at: PAKN (KING SALMON , AK, US) observed 0414 UTC 15 November 2018
Temperature: -1.1°C (30°F)
Dewpoint: -1.7°C (29°F) [RH = 96%]
Pressure (altimeter): 29.87 inches Hg (1011.6 mb)
Winds: from the N (360 degrees) at 7 MPH (6 knots; 3.1 m/s)
Visibility: 2.00 miles (3.22 km)
Ceiling: 300 feet AGL
Clouds: overcast cloud deck at 300 feet AGL
Weather: BR  (mist)

METAR text: PAKN 150354Z 35005KT 3/4SM R12/4000V5000FT BR VV003 M01/M02 A2987 RMK AO2 SLP115 I1001 T10111022
Conditions at: PAKN (KING SALMON , AK, US) observed 0354 UTC 15 November 2018
Temperature: -1.1°C (30°F)
Dewpoint: -2.2°C (28°F) [RH = 92%]
Pressure (altimeter): 29.87 inches Hg (1011.6 mb)
[Sea-level pressure: 1011.5 mb]
Winds: from the N (350 degrees) at 6 MPH (5 knots; 2.6 m/s)
Visibility: 0.75 miles (1.21 km)
Ceiling: indefinite ceiling with vertical visibility of 300 feet AGL
Clouds: obscured sky
Weather: BR  (mist)

Forecast for: PAKN (KING SALMON , AK, US)
Text: PAKN 150300Z 1503/1524 34006KT 1SM BR OVC002
Forecast period: 0300 to 1800 UTC 15 November 2018
Forecast type: FROM: standard forecast or significant change
Winds: from the NNW (340 degrees) at 7 MPH (6 knots; 3.1 m/s)
Visibility: 1.00 miles (1.61 km)
Ceiling: 200 feet AGL
Clouds: overcast cloud deck at 200 feet AGL
Weather: BR  (mist)
Text: FM151800 01006KT P6SM FEW008 SCT250
Forecast period: 1800 UTC 15 November 2018 to 0000 UTC 16 November 2018
Forecast type: FROM: standard forecast or significant change
Winds: from the N (10 degrees) at 7 MPH (6 knots; 3.1 m/s)
Visibility: 6 or more miles 10+ km)
Ceiling: at least 12,000 feet AGL
Clouds: few clouds at 800 feet AGL
scattered clouds at 25000 feet AGL
Weather: no significant weather forecast for this period